Time;durP1;ratioP1;P1;durP2;ratioP2;P2;SDS_P1;SDS_P2;PMS_P1;PMS_P2;Temp;Humidity;BMP_temperature;BMP_pressure;BME280_temperature;BME280_humidity;BME280_pressure;Samples;Min_cycle;Max_cycle;Signal;HPM_P1;HPM_P2
2021/12/16 00:04:22;;;;;;;31.97;28.80;;;6.00;99.90;;;;;;4963389;28;20518;-78
2021/12/16 00:07:07;;;;;;;30.80;27.67;;;5.90;99.90;;;;;;4972606;28;20442;-77
2021/12/16 00:09:45;;;;;;;29.70;26.67;;;6.00;99.90;;;;;;4972709;28;20449;-78
2021/12/16 00:31:52;;;;;;;32.60;29.07;;;5.60;99.90;;;;;;4931513;29;20508;-77
2021/12/16 00:34:22;;;;;;;33.37;28.60;;;5.60;99.90;;;;;;4963794;28;20473;-75
2021/12/16 00:36:50;;;;;;;33.37;29.97;;;5.60;99.90;;;;;;4972378;28;20510;-75
2021/12/16 00:39:21;;;;;;;32.30;29.03;;;5.70;99.90;;;;;;4972110;28;20487;-76
2021/12/16 00:41:51;;;;;;;32.90;29.50;;;5.70;99.90;;;;;;4972262;28;20506;-75
2021/12/16 00:44:35;;;;;;;33.23;29.80;;;5.70;99.90;;;;;;4972150;28;21187;-76
2021/12/16 00:47:25;;;;;;;32.17;28.97;;;5.60;99.90;;;;;;4972217;28;20447;-75
2021/12/16 00:49:53;;;;;;;32.77;29.50;;;5.60;99.90;;;;;;4972339;28;20856;-76
2021/12/16 00:55:19;;;;;;;33.27;29.87;;;5.60;99.90;;;;;;4955935;28;20446;-76
2021/12/16 00:57:49;;;;;;;35.33;31.80;;;5.60;99.90;;;;;;4976316;28;20573;-75
2021/12/16 01:00:16;;;;;;;38.33;34.80;;;5.60;99.90;;;;;;4976192;28;20460;-76
2021/12/16 01:02:54;;;;;;;38.53;34.63;;;5.50;99.90;;;;;;4990311;28;20677;-77
2021/12/16 01:08:41;;;;;;;41.77;38.10;;;5.60;99.90;;;;;;4995816;28;20646;-76
2021/12/16 01:33:49;;;;;;;41.90;38.10;;;5.40;99.90;;;;;;4994930;28;20997;-74
2021/12/16 01:36:32;;;;;;;41.70;37.70;;;5.30;99.90;;;;;;4992985;28;21063;-73
2021/12/16 01:47:44;;;;;;;44.47;40.03;;;5.30;99.90;;;;;;4995063;28;20982;-73
2021/12/16 01:50:17;;;;;;;48.47;43.37;;;5.30;99.90;;;;;;4994822;28;20463;-72
2021/12/16 01:53:05;;;;;;;43.33;39.00;;;5.30;99.90;;;;;;4994419;28;20459;-73
2021/12/16 01:55:39;;;;;;;47.60;42.97;;;5.60;99.90;;;;;;4994751;28;20462;-72
2021/12/16 01:58:15;;;;;;;43.90;39.70;;;5.30;99.90;;;;;;4994237;28;20516;-72
2021/12/16 02:00:57;;;;;;;48.13;42.83;;;5.30;99.90;;;;;;4994440;28;20466;-72
2021/12/16 02:03:38;;;;;;;45.97;40.97;;;5.30;99.90;;;;;;4993277;28;20455;-72
2021/12/16 02:06:11;;;;;;;45.90;41.27;;;5.20;99.90;;;;;;4994191;28;20454;-72
2021/12/16 02:08:39;;;;;;;47.10;42.20;;;5.30;99.90;;;;;;4994230;28;20471;-72
2021/12/16 02:11:26;;;;;;;44.33;39.73;;;5.30;99.90;;;;;;4994324;28;20490;-75
2021/12/16 02:28:04;;;;;;;40.23;35.93;;;5.40;99.90;;;;;;4994147;28;21054;-74
2021/12/16 02:34:15;;;;;;;40.53;36.60;;;5.40;99.90;;;;;;5016059;28;20432;-75
2021/12/16 02:36:42;;;;;;;37.93;34.50;;;5.40;99.90;;;;;;5018562;28;20504;-75
2021/12/16 02:39:13;;;;;;;39.70;36.10;;;5.50;99.90;;;;;;5005059;28;20479;-75
2021/12/16 02:41:42;;;;;;;38.80;35.40;;;5.40;99.90;;;;;;4995767;28;20509;-75
2021/12/16 02:44:29;;;;;;;40.97;36.93;;;5.40;99.90;;;;;;4996223;28;20799;-74
2021/12/16 02:49:44;;;;;;;40.63;36.53;;;5.40;99.90;;;;;;4994467;28;20444;-75
2021/12/16 02:52:12;;;;;;;37.90;34.03;;;5.50;99.90;;;;;;4993631;28;20451;-75
2021/12/16 02:54:41;;;;;;;39.00;35.20;;;5.50;99.90;;;;;;4993397;28;20469;-75
2021/12/16 02:57:09;;;;;;;37.13;33.50;;;5.50;99.90;;;;;;4993283;28;20979;-75
2021/12/16 02:59:36;;;;;;;36.93;33.33;;;5.50;99.90;;;;;;4993364;28;20489;-75
2021/12/16 03:02:08;;;;;;;37.43;33.83;;;5.40;99.90;;;;;;4993433;28;20811;-75
2021/12/16 03:04:36;;;;;;;39.77;35.60;;;5.40;99.90;;;;;;4993374;28;20463;-78
2021/12/16 03:07:05;;;;;;;39.30;35.37;;;5.50;99.90;;;;;;4993333;28;20458;-78
2021/12/16 03:15:31;;;;;;;37.53;33.67;;;5.50;99.90;;;;;;4995336;28;20441;-76
2021/12/16 03:18:05;;;;;;;36.50;32.67;;;5.50;99.90;;;;;;5001041;28;20453;-75
2021/12/16 03:20:39;;;;;;;37.23;33.23;;;5.50;99.90;;;;;;4999146;28;20549;-75
2021/12/16 03:23:30;;;;;;;36.50;30.73;;;5.50;99.90;;;;;;5000398;28;20477;-75
2021/12/16 03:26:24;;;;;;;38.00;34.00;;;5.60;99.90;;;;;;5000575;28;20453;-78
2021/12/16 03:34:39;;;;;;;39.20;32.77;;;5.60;99.90;;;;;;5001142;28;20434;-75
2021/12/16 03:37:14;;;;;;;37.80;33.90;;;5.70;99.90;;;;;;5002477;28;20481;-76
2021/12/16 03:39:44;;;;;;;36.00;32.23;;;5.70;99.90;;;;;;5001813;28;20484;-76
2021/12/16 03:42:11;;;;;;;34.87;31.33;;;5.70;99.90;;;;;;4998360;28;20455;-74
2021/12/16 03:44:52;;;;;;;37.83;32.60;;;5.70;99.90;;;;;;5000671;28;20450;-75
2021/12/16 03:47:22;;;;;;;33.87;30.70;;;5.70;99.90;;;;;;5001767;28;20467;-78
2021/12/16 03:49:50;;;;;;;36.60;32.67;;;5.70;99.90;;;;;;4998091;28;20449;-75
2021/12/16 03:52:18;;;;;;;36.77;32.87;;;5.80;99.90;;;;;;5000577;28;20538;-77
2021/12/16 03:54:50;;;;;;;37.00;33.33;;;5.80;99.90;;;;;;5001975;28;21003;-75
2021/12/16 03:57:19;;;;;;;35.20;31.40;;;5.80;99.90;;;;;;5001216;28;20450;-76
2021/12/16 03:59:49;;;;;;;39.43;35.13;;;5.70;99.90;;;;;;4999887;28;20478;-76
2021/12/16 04:02:20;;;;;;;36.47;31.70;;;5.70;99.90;;;;;;4995805;28;20498;-76
2021/12/16 04:04:51;;;;;;;38.13;33.47;;;5.80;99.90;;;;;;4992429;28;20555;-76
2021/12/16 04:07:20;;;;;;;38.83;33.63;;;5.80;99.90;;;;;;4992385;28;20464;-76
2021/12/16 04:09:48;;;;;;;36.50;31.50;;;5.80;99.90;;;;;;4992174;28;20489;-75
2021/12/16 04:12:19;;;;;;;37.17;33.40;;;5.80;99.90;;;;;;4992181;28;20465;-76
2021/12/16 04:14:50;;;;;;;36.20;32.30;;;5.80;99.90;;;;;;4992060;28;20879;-76
2021/12/16 04:17:18;;;;;;;36.67;32.73;;;5.70;99.90;;;;;;4992252;28;20454;-76
2021/12/16 04:19:45;;;;;;;39.33;35.10;;;5.70;99.90;;;;;;4992159;28;20747;-76
2021/12/16 04:22:17;;;;;;;39.67;34.73;;;5.60;99.90;;;;;;4991806;28;20871;-76
2021/12/16 04:24:46;;;;;;;38.17;30.70;;;5.60;99.90;;;;;;4992186;28;20545;-78
2021/12/16 04:27:14;;;;;;;41.67;33.23;;;5.60;99.90;;;;;;4991365;28;20478;-78
2021/12/16 04:29:41;;;;;;;39.77;33.60;;;5.60;99.90;;;;;;4992023;28;20871;-77
2021/12/16 04:32:10;;;;;;;37.27;31.80;;;5.60;99.90;;;;;;4991766;28;20458;-78
2021/12/16 04:34:37;;;;;;;37.20;33.00;;;5.50;99.90;;;;;;4991704;28;20502;-77
2021/12/16 04:37:05;;;;;;;36.57;32.30;;;5.50;99.90;;;;;;4991798;28;20460;-78
2021/12/16 04:39:34;;;;;;;37.60;31.43;;;5.40;99.90;;;;;;4991821;28;20491;-74
2021/12/16 04:42:03;;;;;;;34.93;30.57;;;5.40;99.90;;;;;;4991733;28;20975;-76
2021/12/16 04:44:30;;;;;;;37.60;32.07;;;5.40;99.90;;;;;;4991754;28;20447;-78
2021/12/16 04:46:58;;;;;;;33.97;30.27;;;5.30;99.90;;;;;;4991704;28;21198;-77
2021/12/16 04:49:27;;;;;;;30.80;27.60;;;5.40;99.90;;;;;;4992068;28;20451;-77
2021/12/16 04:51:57;;;;;;;33.27;28.97;;;5.30;99.90;;;;;;4991765;28;20462;-79
2021/12/16 04:54:27;;;;;;;32.60;29.20;;;5.30;99.90;;;;;;4991735;28;20454;-77
2021/12/16 04:56:55;;;;;;;33.93;30.27;;;5.30;99.90;;;;;;4991843;28;20559;-77
2021/12/16 04:59:23;;;;;;;31.90;28.50;;;5.30;99.90;;;;;;4991736;28;21011;-77
2021/12/16 05:01:52;;;;;;;35.23;30.30;;;5.30;99.90;;;;;;4991778;28;20451;-76
2021/12/16 05:04:19;;;;;;;33.47;29.90;;;5.30;99.90;;;;;;4992147;28;20457;-78
2021/12/16 05:06:48;;;;;;;34.90;28.53;;;5.30;99.90;;;;;;4991850;28;20521;-77
2021/12/16 05:09:32;;;;;;;30.60;27.20;;;5.30;99.90;;;;;;4991817;28;20457;-77
2021/12/16 05:11:59;;;;;;;32.13;28.57;;;5.30;99.90;;;;;;4992000;28;20444;-78
2021/12/16 05:14:26;;;;;;;32.13;28.80;;;5.30;99.90;;;;;;4991553;28;20450;-78
2021/12/16 05:16:52;;;;;;;30.57;27.43;;;5.30;99.90;;;;;;4991771;28;20513;-79
2021/12/16 05:19:20;;;;;;;30.33;27.13;;;5.40;99.90;;;;;;4991341;28;20497;-77
2021/12/16 05:21:54;;;;;;;30.30;27.10;;;5.30;99.90;;;;;;4991556;28;20550;-77
2021/12/16 05:24:25;;;;;;;29.50;26.40;;;5.30;99.90;;;;;;4991295;28;20581;-77
2021/12/16 05:26:54;;;;;;;29.03;26.27;;;5.30;99.90;;;;;;4991498;28;20474;-79
2021/12/16 05:29:21;;;;;;;29.03;26.10;;;5.30;99.90;;;;;;4991467;28;20449;-79
2021/12/16 05:31:48;;;;;;;28.17;25.33;;;5.30;99.90;;;;;;4991342;28;20454;-78
2021/12/16 05:34:15;;;;;;;29.87;26.83;;;5.40;99.90;;;;;;4991213;28;20499;-79
2021/12/16 05:36:41;;;;;;;30.33;27.07;;;5.40;99.90;;;;;;4991497;28;20467;-79
2021/12/16 05:39:11;;;;;;;29.43;26.43;;;5.40;99.90;;;;;;4993936;28;20496;-79
2021/12/16 05:41:38;;;;;;;30.20;26.93;;;5.50;99.90;;;;;;4995023;28;20460;-78
2021/12/16 05:44:05;;;;;;;30.90;27.73;;;5.50;99.90;;;;;;4994833;28;20447;-75
2021/12/16 05:46:32;;;;;;;28.73;25.70;;;5.60;99.90;;;;;;4995047;28;20977;-75
2021/12/16 05:49:01;;;;;;;28.13;25.23;;;5.60;99.90;;;;;;4994930;28;20465;-77
2021/12/16 05:51:31;;;;;;;30.60;25.60;;;5.70;99.90;;;;;;4994836;28;20459;-77
2021/12/16 05:54:01;;;;;;;29.10;26.20;;;5.70;99.90;;;;;;4994763;28;20451;-75
2021/12/16 05:56:30;;;;;;;29.30;26.20;;;5.70;99.90;;;;;;4994738;28;20446;-76
2021/12/16 05:58:57;;;;;;;30.87;27.80;;;5.80;99.90;;;;;;4994592;28;20958;-76
2021/12/16 06:01:26;;;;;;;28.73;25.83;;;5.90;99.90;;;;;;4994812;28;20452;-76
2021/12/16 06:03:53;;;;;;;25.70;23.13;;;5.80;99.90;;;;;;4994320;28;20454;-76
2021/12/16 06:06:22;;;;;;;28.40;25.60;;;5.80;99.90;;;;;;4994670;28;20465;-77
2021/12/16 06:08:50;;;;;;;27.20;24.50;;;5.90;99.90;;;;;;4994964;28;20533;-76
2021/12/16 06:11:21;;;;;;;29.90;26.80;;;5.90;99.90;;;;;;4994626;28;20505;-75
2021/12/16 06:14:04;;;;;;;27.50;24.83;;;5.80;99.90;;;;;;4994369;28;20556;-76
2021/12/16 06:27:33;;;;;;;29.10;25.90;;;5.70;99.90;;;;;;4994640;28;20454;-75
2021/12/16 06:30:05;;;;;;;28.30;25.40;;;5.80;99.90;;;;;;4994028;28;20450;-75
2021/12/16 06:32:32;;;;;;;27.67;24.77;;;5.80;99.90;;;;;;4994096;28;20448;-76
2021/12/16 06:34:59;;;;;;;28.03;25.23;;;5.80;99.90;;;;;;4994028;28;20467;-76
2021/12/16 06:37:25;;;;;;;29.33;26.37;;;5.80;99.90;;;;;;4993952;28;20998;-75
2021/12/16 06:39:52;;;;;;;32.80;28.40;;;5.80;99.90;;;;;;4993937;28;20558;-76
2021/12/16 06:42:20;;;;;;;29.40;26.37;;;5.80;99.90;;;;;;4993950;28;20456;-74
2021/12/16 06:44:52;;;;;;;29.70;26.63;;;5.80;99.90;;;;;;4994052;28;20443;-75
2021/12/16 06:47:25;;;;;;;29.63;26.30;;;5.80;99.90;;;;;;4993680;28;20490;-75
2021/12/16 06:49:54;;;;;;;28.30;25.50;;;5.80;99.90;;;;;;4993105;28;20491;-75
2021/12/16 06:52:27;;;;;;;32.37;25.70;;;5.80;99.90;;;;;;4993620;28;20465;-75
2021/12/16 06:55:04;;;;;;;29.50;26.33;;;5.90;99.90;;;;;;4993793;28;20945;-75
2021/12/16 06:57:40;;;;;;;28.73;26.00;;;6.00;99.90;;;;;;4998755;28;20455;-75
2021/12/16 07:00:16;;;;;;;28.60;25.73;;;6.00;99.90;;;;;;4993964;28;20484;-75
2021/12/16 07:02:58;;;;;;;30.70;26.60;;;6.10;99.90;;;;;;5001652;28;20444;-74
2021/12/16 07:05:28;;;;;;;28.83;26.03;;;6.00;99.90;;;;;;5016430;28;20488;-75
2021/12/16 07:07:56;;;;;;;31.20;26.17;;;6.00;99.90;;;;;;5016586;28;20474;-74
2021/12/16 07:10:24;;;;;;;35.10;27.33;;;6.10;99.90;;;;;;5004656;28;20443;-76
2021/12/16 07:12:51;;;;;;;28.70;25.67;;;6.10;99.90;;;;;;4995439;28;20969;-75
2021/12/16 07:15:21;;;;;;;32.83;25.23;;;6.20;99.90;;;;;;4995697;28;20450;-75
2021/12/16 07:17:50;;;;;;;31.23;26.67;;;6.20;99.90;;;;;;4995504;28;20816;-77
2021/12/16 07:20:21;;;;;;;30.53;27.30;;;6.20;99.90;;;;;;4993552;28;20486;-77
2021/12/16 07:22:47;;;;;;;29.13;26.03;;;6.10;99.90;;;;;;4993147;28;20500;-76
2021/12/16 07:25:14;;;;;;;32.90;28.43;;;6.10;99.90;;;;;;4993176;28;20967;-76
2021/12/16 07:27:41;;;;;;;30.87;27.57;;;6.10;99.90;;;;;;4993114;28;20965;-77
2021/12/16 07:30:11;;;;;;;28.87;25.90;;;6.10;99.90;;;;;;4992961;28;20452;-76
2021/12/16 07:32:39;;;;;;;33.23;28.90;;;6.10;99.90;;;;;;4992856;28;20457;-77
2021/12/16 07:35:11;;;;;;;30.80;27.60;;;6.10;99.90;;;;;;4992704;28;20871;-77
2021/12/16 07:37:38;;;;;;;30.97;27.73;;;6.00;99.90;;;;;;4992663;28;20463;-76
2021/12/16 07:40:08;;;;;;;31.07;27.83;;;6.10;99.90;;;;;;4992268;28;20490;-75
2021/12/16 07:42:44;;;;;;;31.37;26.50;;;6.10;99.90;;;;;;4992363;28;20459;-79
2021/12/16 07:45:11;;;;;;;28.20;25.40;;;6.10;99.90;;;;;;4992610;28;21028;-76
2021/12/16 07:47:38;;;;;;;29.37;26.30;;;6.20;99.90;;;;;;4992589;28;20466;-75
2021/12/16 07:50:08;;;;;;;28.10;24.77;;;6.20;99.90;;;;;;4992352;28;20526;-74
2021/12/16 07:52:36;;;;;;;29.40;26.30;;;6.20;99.90;;;;;;4992264;28;20488;-77
2021/12/16 07:55:04;;;;;;;28.33;25.43;;;6.30;99.90;;;;;;4992478;28;20459;-76
2021/12/16 07:57:31;;;;;;;31.50;27.70;;;6.20;99.90;;;;;;4992494;28;20490;-74
2021/12/16 07:59:58;;;;;;;33.13;26.30;;;6.30;99.90;;;;;;4992293;28;20480;-74
2021/12/16 08:02:25;;;;;;;31.63;28.20;;;6.30;99.90;;;;;;4991165;28;21283;-76
2021/12/16 08:04:53;;;;;;;33.43;29.30;;;6.30;99.90;;;;;;4992548;28;20462;-76
2021/12/16 08:07:21;;;;;;;35.90;30.10;;;6.30;99.90;;;;;;4992478;28;20466;-74
2021/12/16 08:09:50;;;;;;;33.53;27.23;;;6.30;99.90;;;;;;4992274;28;20460;-75
2021/12/16 08:12:17;;;;;;;31.77;28.37;;;6.40;99.90;;;;;;4991746;28;20457;-75
2021/12/16 08:14:46;;;;;;;32.67;29.17;;;6.40;99.90;;;;;;4992159;28;20517;-74
2021/12/16 08:17:13;;;;;;;39.53;28.40;;;6.40;99.90;;;;;;4992014;28;20466;-76
2021/12/16 08:19:41;;;;;;;32.90;29.17;;;6.40;99.90;;;;;;4992098;28;20493;-75
2021/12/16 08:22:08;;;;;;;31.70;27.83;;;6.40;99.90;;;;;;4991812;28;20862;-77
2021/12/16 08:24:36;;;;;;;30.20;27.10;;;6.40;99.90;;;;;;4992474;28;20451;-78
2021/12/16 08:27:03;;;;;;;29.00;25.37;;;6.40;99.90;;;;;;4993526;28;20453;-82
2021/12/16 08:29:30;;;;;;;32.27;27.00;;;6.30;99.90;;;;;;4993295;28;20498;-79
2021/12/16 08:31:57;;;;;;;31.33;26.63;;;6.40;99.90;;;;;;4992243;28;20461;-79
2021/12/16 08:34:25;;;;;;;30.30;26.40;;;6.60;99.90;;;;;;4991598;28;20455;-78
2021/12/16 08:36:52;;;;;;;30.00;26.80;;;6.70;99.90;;;;;;4991416;28;20543;-79
2021/12/16 08:39:19;;;;;;;34.30;26.40;;;6.90;99.90;;;;;;4991492;28;20453;-77
2021/12/16 08:41:51;;;;;;;28.57;25.40;;;6.90;99.90;;;;;;4991283;28;20537;-79
2021/12/16 08:44:19;;;;;;;33.67;26.90;;;6.90;99.90;;;;;;4991335;28;20450;-79
2021/12/16 08:46:49;;;;;;;32.37;28.10;;;7.10;99.90;;;;;;4991126;28;20470;-78
2021/12/16 08:49:16;;;;;;;32.53;28.10;;;7.10;99.90;;;;;;4991504;28;20589;-79
2021/12/16 08:51:45;;;;;;;32.30;26.37;;;7.00;99.90;;;;;;4991410;28;20479;-79
2021/12/16 08:54:12;;;;;;;28.83;25.83;;;6.90;99.90;;;;;;4991028;28;20462;-80
2021/12/16 08:56:40;;;;;;;29.77;26.53;;;6.80;99.90;;;;;;4990958;28;20460;-80
2021/12/16 08:59:08;;;;;;;33.30;28.83;;;6.70;99.90;;;;;;4991146;28;20828;-79
2021/12/16 09:01:45;;;;;;;29.20;25.40;;;6.80;99.90;;;;;;4991003;28;20817;-79
2021/12/16 09:04:12;;;;;;;30.87;24.97;;;7.00;99.90;;;;;;4990876;28;20453;-79
2021/12/16 09:06:39;;;;;;;29.00;24.30;;;7.10;99.90;;;;;;4991040;28;20485;-80
2021/12/16 09:09:08;;;;;;;29.13;25.67;;;7.10;99.90;;;;;;4990784;28;20454;-79
2021/12/16 09:11:39;;;;;;;25.73;23.03;;;7.20;99.90;;;;;;4990971;28;20477;-79
2021/12/16 09:14:08;;;;;;;28.30;25.37;;;7.10;99.90;;;;;;4994078;28;20461;-78
2021/12/16 09:16:37;;;;;;;25.87;23.30;;;7.20;99.90;;;;;;4994592;28;20467;-78
2021/12/16 09:19:06;;;;;;;28.03;25.23;;;7.20;99.90;;;;;;4995274;28;20454;-79
2021/12/16 09:21:36;;;;;;;24.90;22.40;;;7.20;99.90;;;;;;4995174;28;20496;-79
2021/12/16 09:24:06;;;;;;;27.43;24.70;;;7.20;99.90;;;;;;4994443;28;20988;-78
2021/12/16 09:26:33;;;;;;;24.87;22.40;;;7.30;99.90;;;;;;4994582;28;20473;-79
2021/12/16 09:29:00;;;;;;;26.17;23.50;;;7.40;99.90;;;;;;4994320;28;20498;-78
2021/12/16 09:31:29;;;;;;;27.43;24.60;;;7.40;99.90;;;;;;4994642;28;20481;-78
2021/12/16 09:34:04;;;;;;;27.87;25.00;;;7.30;99.90;;;;;;4994582;28;20457;-78
2021/12/16 09:36:32;;;;;;;39.70;26.00;;;7.30;99.90;;;;;;4994292;28;20607;-78
2021/12/16 09:38:59;;;;;;;29.20;26.20;;;7.40;99.90;;;;;;4994143;28;20460;-77
2021/12/16 09:41:27;;;;;;;25.50;23.00;;;7.50;99.90;;;;;;4994214;28;20544;-78
2021/12/16 09:43:55;;;;;;;26.67;23.97;;;7.50;99.90;;;;;;4994188;28;20456;-78
2021/12/16 09:46:29;;;;;;;27.77;25.03;;;7.50;99.90;;;;;;4994156;28;20810;-78
2021/12/16 09:48:57;;;;;;;31.03;26.17;;;7.40;99.90;;;;;;4994226;28;20456;-78
2021/12/16 09:51:26;;;;;;;28.93;25.90;;;7.30;99.90;;;;;;4994127;28;20470;-78
2021/12/16 09:53:55;;;;;;;26.53;23.73;;;7.30;99.90;;;;;;4994106;28;20457;-78
2021/12/16 09:56:28;;;;;;;28.80;25.77;;;7.20;99.90;;;;;;4994370;28;20458;-79
2021/12/16 09:58:58;;;;;;;26.77;24.07;;;7.20;99.90;;;;;;4994375;28;20470;-78
2021/12/16 10:01:26;;;;;;;27.10;24.40;;;7.40;99.90;;;;;;4993941;28;20539;-77
2021/12/16 10:04:00;;;;;;;25.43;22.50;;;7.60;99.90;;;;;;4993860;28;20488;-79
2021/12/16 10:06:27;;;;;;;27.43;24.73;;;7.70;99.90;;;;;;4994000;28;20930;-78
2021/12/16 10:08:54;;;;;;;29.70;25.60;;;7.60;99.90;;;;;;4993937;28;20451;-79
2021/12/16 10:11:21;;;;;;;26.00;23.30;;;7.60;99.90;;;;;;4993823;28;20458;-78
2021/12/16 10:14:01;;;;;;;26.87;24.10;;;7.60;99.90;;;;;;4993523;28;20455;-77
2021/12/16 10:19:17;;;;;;;24.00;21.70;;;7.40;99.90;;;;;;4991202;28;20844;-78
2021/12/16 10:21:45;;;;;;;24.97;22.47;;;7.30;99.90;;;;;;4993229;28;20490;-78
2021/12/16 10:24:22;;;;;;;25.83;22.97;;;7.20;99.90;;;;;;4992483;28;21004;-77
2021/12/16 10:27:06;;;;;;;29.80;24.03;;;7.20;99.90;;;;;;4993554;28;20504;-78
2021/12/16 10:29:37;;;;;;;26.23;23.43;;;7.10;99.90;;;;;;4993344;28;20451;-79
2021/12/16 10:32:05;;;;;;;28.30;23.17;;;7.20;99.90;;;;;;4993415;28;20461;-78
2021/12/16 10:34:34;;;;;;;28.53;24.37;;;7.40;99.90;;;;;;4993218;28;20986;-77
2021/12/16 10:37:01;;;;;;;27.73;24.90;;;7.30;99.90;;;;;;4990131;28;20499;-78
2021/12/16 10:39:27;;;;;;;28.13;25.13;;;7.30;99.90;;;;;;4992976;28;20450;-77
2021/12/16 10:41:56;;;;;;;27.57;24.87;;;7.30;99.90;;;;;;4993063;28;20867;-77
2021/12/16 10:44:27;;;;;;;25.63;23.13;;;7.40;99.90;;;;;;4993347;28;20455;-77
2021/12/16 10:47:00;;;;;;;28.23;24.50;;;7.50;99.90;;;;;;4993346;28;20512;-77
2021/12/16 10:49:30;;;;;;;28.37;25.47;;;7.60;99.90;;;;;;4993300;28;20453;-77
2021/12/16 10:52:00;;;;;;;26.60;24.10;;;7.60;99.90;;;;;;4993188;28;20975;-78
2021/12/16 10:54:28;;;;;;;25.07;22.53;;;7.70;99.90;;;;;;4993144;28;20454;-78
2021/12/16 10:57:02;;;;;;;27.20;24.40;;;7.80;99.90;;;;;;4993065;28;20941;-78
2021/12/16 10:59:34;;;;;;;27.80;22.90;;;8.00;99.90;;;;;;4993132;28;20553;-78
2021/12/16 11:02:13;;;;;;;27.10;24.50;;;8.20;99.90;;;;;;4993038;28;20823;-77
2021/12/16 11:04:44;;;;;;;28.43;25.63;;;8.20;99.90;;;;;;4991590;28;20467;-77
2021/12/16 11:07:20;;;;;;;26.77;23.87;;;8.00;99.90;;;;;;4992912;28;21188;-77
2021/12/16 11:10:00;;;;;;;24.37;21.87;;;8.10;99.90;;;;;;4992849;28;20823;-76
2021/12/16 11:12:45;;;;;;;26.47;23.87;;;8.00;99.90;;;;;;4992714;28;20456;-78
2021/12/16 11:15:19;;;;;;;26.80;23.00;;;8.00;99.90;;;;;;4992962;28;20975;-77
2021/12/16 11:17:49;;;;;;;24.37;21.87;;;8.00;99.90;;;;;;4993006;28;20461;-78
2021/12/16 11:20:22;;;;;;;26.13;23.43;;;8.10;99.90;;;;;;4992714;28;20455;-78
2021/12/16 11:22:54;;;;;;;27.63;24.83;;;8.10;99.90;;;;;;4992557;28;20482;-78
2021/12/16 11:25:25;;;;;;;28.00;24.53;;;8.10;99.90;;;;;;4992812;28;20454;-78
2021/12/16 11:27:55;;;;;;;25.23;22.87;;;8.00;99.90;;;;;;4992416;28;20455;-78
2021/12/16 11:30:33;;;;;;;23.80;21.57;;;8.10;99.90;;;;;;4992358;28;20458;-78
2021/12/16 11:33:17;;;;;;;28.93;25.90;;;8.00;99.90;;;;;;4992465;28;20458;-78
2021/12/16 11:35:55;;;;;;;33.83;27.33;;;8.20;99.90;;;;;;4992281;28;21200;-79
2021/12/16 11:38:32;;;;;;;26.10;22.80;;;8.30;99.90;;;;;;4992635;28;20983;-78
2021/12/16 11:41:08;;;;;;;26.13;23.53;;;8.30;99.90;;;;;;4992688;28;20902;-78
2021/12/16 11:43:44;;;;;;;26.73;23.40;;;8.30;99.90;;;;;;4992717;28;20457;-76
2021/12/16 11:46:22;;;;;;;25.00;22.60;;;8.40;99.90;;;;;;5013112;28;20419;-76
2021/12/16 11:48:51;;;;;;;26.33;23.30;;;8.50;99.90;;;;;;5017727;28;20440;-77
2021/12/16 11:51:24;;;;;;;27.40;24.60;;;8.40;99.90;;;;;;5017314;28;20455;-78
2021/12/16 11:53:55;;;;;;;24.63;21.90;;;8.50;99.90;;;;;;5003356;28;20460;-77
2021/12/16 11:56:35;;;;;;;23.27;21.07;;;8.70;99.90;;;;;;5003206;28;20462;-77
2021/12/16 11:59:03;;;;;;;25.57;22.90;;;8.80;99.90;;;;;;5001035;28;20448;-78
2021/12/16 12:01:30;;;;;;;25.27;22.57;;;8.90;99.90;;;;;;4992998;28;20498;-77
2021/12/16 12:04:02;;;;;;;24.23;21.73;;;8.90;99.90;;;;;;4992489;28;20450;-78
2021/12/16 12:06:31;;;;;;;26.50;23.70;;;8.80;99.90;;;;;;4992216;28;20829;-77
2021/12/16 12:09:02;;;;;;;26.30;23.70;;;8.80;99.90;;;;;;4992129;28;20462;-75
2021/12/16 12:11:31;;;;;;;25.37;22.93;;;8.90;99.90;;;;;;4992062;28;20455;-77
2021/12/16 12:14:01;;;;;;;23.77;21.40;;;8.90;99.90;;;;;;4991978;28;20459;-80
2021/12/16 12:16:33;;;;;;;26.17;23.83;;;8.80;99.90;;;;;;4994406;28;20458;-82
2021/12/16 12:19:03;;;;;;;27.87;23.93;;;8.80;99.90;;;;;;4993044;28;20462;-84
2021/12/16 12:21:37;;;;;;;25.13;22.90;;;8.80;99.90;;;;;;4993920;28;20487;-85
2021/12/16 12:24:09;;;;;;;27.80;24.90;;;8.70;99.90;;;;;;5005697;28;20510;-85
2021/12/16 12:26:39;;;;;;;27.43;24.83;;;8.60;99.90;;;;;;5002932;28;20469;-83
2021/12/16 12:29:09;;;;;;;26.00;23.30;;;8.60;99.90;;;;;;5004387;28;20454;-85
2021/12/16 12:31:41;;;;;;;25.93;23.27;;;8.40;99.90;;;;;;5007514;28;20506;-86
2021/12/16 12:34:08;;;;;;;33.77;23.43;;;8.40;99.90;;;;;;5001528;28;20451;-86
2021/12/16 12:36:36;;;;;;;26.43;23.63;;;8.60;99.90;;;;;;5002652;28;20473;-85
2021/12/16 12:39:06;;;;;;;25.13;22.73;;;8.60;99.90;;;;;;5012281;28;20469;-85
2021/12/16 12:41:33;;;;;;;26.23;23.83;;;8.60;99.90;;;;;;5077704;22;20509;-83
2021/12/16 12:44:04;;;;;;;25.77;23.50;;;8.50;99.90;;;;;;4992418;28;20443;-85
2021/12/16 12:46:33;;;;;;;23.60;21.60;;;8.70;99.90;;;;;;5115207;23;20492;-84
2021/12/16 12:49:07;;;;;;;26.27;23.77;;;9.00;99.90;;;;;;5004736;28;20477;-84
2021/12/16 12:51:37;;;;;;;24.83;22.43;;;8.60;99.90;;;;;;4994517;28;21035;-84
2021/12/16 12:54:17;;;;;;;24.90;22.53;;;8.70;99.90;;;;;;4992102;28;20451;-83
2021/12/16 12:56:45;;;;;;;27.57;23.70;;;8.80;99.90;;;;;;4999938;28;20450;-85
2021/12/16 13:02:27;;;;;;;24.20;22.00;;;8.50;99.90;;;;;;5984627;23;20410;-84
2021/12/16 13:05:08;;;;;;;;;;;;;;;;;;;;;
2021/12/16 13:13:32;;;;;;;20.13;18.43;;;8.70;99.90;;;;;;5800617;23;20486;-84
2021/12/16 13:16:20;;;;;;;24.33;22.23;;;8.90;99.90;;;;;;4983599;28;20447;-83
2021/12/16 13:24:51;;;;;;;22.57;20.57;;;9.30;99.90;;;;;;4953443;28;20431;-84
2021/12/16 13:27:32;;;;;;;24.17;21.83;;;8.80;99.90;;;;;;4953356;28;20457;-83
2021/12/16 13:30:16;;;;;;;23.77;21.57;;;9.00;99.90;;;;;;4954274;29;20483;-83
2021/12/16 13:33:09;;;;;;;24.00;21.93;;;9.30;99.90;;;;;;4960656;29;20457;-83
2021/12/16 13:35:47;;;;;;;24.93;22.40;;;8.80;99.90;;;;;;4954667;29;20479;-83
2021/12/16 13:38:13;;;;;;;23.50;21.30;;;8.70;99.90;;;;;;4954167;29;20503;-84
2021/12/16 13:41:02;;;;;;;22.30;20.27;;;8.90;99.90;;;;;;4960071;28;20496;-84
2021/12/16 13:43:30;;;;;;;23.80;21.77;;;9.50;99.90;;;;;;4958401;29;20443;-84
2021/12/16 13:46:19;;;;;;;23.50;20.77;;;8.90;99.90;;;;;;4947873;28;20984;-83
2021/12/16 13:48:57;;;;;;;22.60;20.40;;;8.80;99.90;;;;;;4934738;29;20458;-84
2021/12/16 14:05:47;;;;;;;22.40;20.53;;;9.20;99.90;;;;;;4999572;28;20582;-84
2021/12/16 14:08:31;;;;;;;21.60;19.70;;;9.10;99.90;;;;;;5002365;28;20474;-84
2021/12/16 14:11:04;;;;;;;21.73;19.47;;;8.90;99.90;;;;;;5003294;28;20476;-84
2021/12/16 14:16:44;;;;;;;21.37;19.67;;;9.50;99.90;;;;;;4987014;28;20496;-83
2021/12/16 14:25:17;;;;;;;23.67;21.53;;;8.90;99.90;;;;;;4985159;28;20852;-84
2021/12/16 14:42:23;;;;;;;21.93;19.97;;;8.80;99.90;;;;;;4988099;28;20472;-84
2021/12/16 14:45:20;;;;;;;22.67;20.90;;;8.80;99.90;;;;;;4981186;28;20446;-85
2021/12/16 14:48:07;;;;;;;22.37;20.37;;;8.70;99.90;;;;;;4983992;28;20446;-85
2021/12/16 14:50:37;;;;;;;22.57;20.50;;;8.70;99.90;;;;;;4982522;28;20466;-84
2021/12/16 14:53:17;;;;;;;21.57;19.87;;;8.60;99.90;;;;;;4982243;28;20447;-84
2021/12/16 14:55:45;;;;;;;23.90;20.60;;;8.50;99.90;;;;;;4983368;28;20459;-85
2021/12/16 14:58:12;;;;;;;22.63;20.60;;;8.40;99.90;;;;;;4989189;28;20443;-84
2021/12/16 15:00:45;;;;;;;24.97;22.90;;;8.40;99.90;;;;;;5009347;28;20573;-86
2021/12/16 15:03:15;;;;;;;22.77;20.87;;;8.40;99.90;;;;;;4991738;28;20494;-85
2021/12/16 15:05:46;;;;;;;76.47;54.27;;;8.40;99.90;;;;;;4983471;28;20459;-84
2021/12/16 15:08:23;;;;;;;21.03;19.27;;;8.50;99.90;;;;;;4980078;28;21009;-85
2021/12/16 15:10:51;;;;;;;22.63;20.70;;;8.40;99.90;;;;;;4977686;28;20454;-84
2021/12/16 15:13:24;;;;;;;23.70;21.43;;;8.30;99.90;;;;;;4982152;28;20443;-84
2021/12/16 15:16:09;;;;;;;23.03;20.93;;;8.20;99.90;;;;;;4981244;28;20443;-83
2021/12/16 15:40:52;;;;;;;24.70;22.60;;;6.80;99.90;;;;;;4964801;28;20514;-81
2021/12/16 15:43:20;;;;;;;24.00;21.87;;;6.60;99.90;;;;;;4978683;28;20645;-81
2021/12/16 15:45:49;;;;;;;23.67;21.37;;;6.50;99.90;;;;;;4972961;28;20503;-82
2021/12/16 15:48:19;;;;;;;24.17;22.23;;;6.40;99.90;;;;;;4973189;28;20484;-81
2021/12/16 15:50:48;;;;;;;25.07;22.47;;;6.40;99.90;;;;;;4973180;28;20457;-82
2021/12/16 15:53:18;;;;;;;20.60;19.10;;;6.30;99.90;;;;;;4973083;28;20475;-81
2021/12/16 15:55:49;;;;;;;22.20;20.20;;;6.20;99.90;;;;;;4973464;28;20457;-80
2021/12/16 15:58:19;;;;;;;22.80;20.90;;;6.20;99.90;;;;;;4973068;28;20550;-82
2021/12/16 16:00:49;;;;;;;23.03;20.97;;;6.20;99.90;;;;;;4972126;28;20455;-82